Terminal Aerodrome Forecast
Issued by NWS

Current Version | Previous Version | Graphics & Text | Print | Product List | Glossary On
Versions: 1 2 3 4 5 6 7 8 9 10 11 12 13 14 15 16 17 18 19 20 21 22 23
000
FTUS41 KPBZ 201100 RRA
TAFMGW
TAF
KMGW 201153Z 2012/2112 15006KT P6SM SCT050
     FM201500 18010G20KT P6SM BKN040
     FM210600 18004KT P6SM BKN040 PROB30 2110/2112 P6SM -RA BKN040=

USA.gov is the U.S. government's official web portal to all federal, state and local government web resources and services.